PWSweather.com
Personal Weather Stations
Station Observations
WISCHPK61
Green Bay Schmitt Park, Green Bay, WI 54311

Green Bay Schmitt ParkGreen Bay, WI 54311

Lat: 44.514277, Lon: -87.935067

Elevation: 735

Station Type: Acu Rite Pro Weather Center model 02032C

http://greenbayweathercam.com

High Low Average
Temperature 31.6°F-0.2°C 12.9°F-10.6°C 22.2°F-5.4°C
Dew Point 31.4°F-0.3°C 5.6°F-14.7°C 20.6°F-6.3°C
Winds 1.2 mph 1.9 kmh Calm Calm Calm SWCalm SW
Wind Gusts 1.2 mph1.9 kmh -- --
Humidity 99% 71% 94%
Pressure 29.38 in994.9 mb 29.09 in985.1 mb -
Precipitation 0.00 in0.0 mm - -
Hour Temp Dew Point Humidity Winds Wind Gusts Pressure Precip Precip Rate Daily Precip Total
12:00 AM 14.9°F-9.5°C 10.4°F-12.0°C 82% Calm Calm -- 29.39 in995.3 mb - 0.00 in0.0 mm 0.00 in0.0 mm
01:00 AM 14.4°F-9.8°C 14.2°F-9.9°C 99% 1.2 mph WNW1.9 kmh WNW -- 29.38 in994.9 mb - 0.00 in0.0 mm 0.00 in0.0 mm
02:00 AM 14.7°F-9.6°C 9.4°F-12.6°C 79% Calm Calm -- 29.34 in993.6 mb - 0.00 in0.0 mm 0.00 in0.0 mm
03:00 AM 15.1°F-9.4°C 14.9°F-9.5°C 99% Calm Calm -- 29.31 in992.6 mb - 0.00 in0.0 mm 0.00 in0.0 mm
04:00 AM 13.8°F-10.1°C 8.5°F-13.1°C 79% Calm Calm -- 29.29 in991.9 mb - 0.00 in0.0 mm 0.00 in0.0 mm
05:00 AM 12.9°F-10.6°C 12.7°F-10.7°C 99% Calm Calm -- 29.27 in991.2 mb - 0.00 in0.0 mm 0.00 in0.0 mm
06:00 AM 13.3°F-10.4°C 5.6°F-14.7°C 71% Calm Calm -- 29.25 in990.5 mb - 0.00 in0.0 mm 0.00 in0.0 mm
07:00 AM 13.6°F-10.2°C 7.7°F-13.5°C 77% Calm Calm 1.2 mph1.9 kmh 29.25 in990.5 mb - 0.00 in0.0 mm 0.00 in0.0 mm
08:00 AM 15.1°F-9.4°C 9.2°F-12.7°C 77% Calm Calm -- 29.25 in990.5 mb - 0.00 in0.0 mm 0.00 in0.0 mm
09:00 AM 16.7°F-8.5°C 16.5°F-8.6°C 99% Calm Calm -- 29.25 in990.5 mb - 0.00 in0.0 mm 0.00 in0.0 mm
10:00 AM 19.9°F-6.7°C 19.7°F-6.8°C 99% Calm Calm -- 29.26 in990.9 mb - 0.00 in0.0 mm 0.00 in0.0 mm
11:00 AM 23.2°F-4.9°C 23.0°F-5.0°C 99% Calm Calm -- 29.26 in990.9 mb - 0.00 in0.0 mm 0.00 in0.0 mm
12:00 PM 25.9°F-3.4°C 25.7°F-3.5°C 99% Calm Calm -- 29.25 in990.5 mb - 0.00 in0.0 mm 0.00 in0.0 mm
01:00 PM 30.2°F-1.0°C 30.0°F-1.1°C 99% Calm Calm -- 29.23 in989.8 mb - 0.00 in0.0 mm 0.00 in0.0 mm
02:00 PM 29.7°F-1.3°C 29.5°F-1.4°C 99% Calm Calm -- 29.22 in989.5 mb - 0.00 in0.0 mm 0.00 in0.0 mm
03:00 PM 28.8°F-1.8°C 28.6°F-1.9°C 99% Calm Calm -- 29.20 in988.8 mb - 0.00 in0.0 mm 0.00 in0.0 mm
04:00 PM 27.1°F-2.7°C 24.6°F-4.1°C 90% Calm Calm -- 29.19 in988.5 mb - 0.00 in0.0 mm 0.00 in0.0 mm
05:00 PM 26.5°F-3.1°C 26.3°F-3.2°C 99% Calm Calm -- 29.18 in988.1 mb - 0.00 in0.0 mm 0.00 in0.0 mm
06:00 PM 25.2°F-3.8°C 22.7°F-5.2°C 90% Calm Calm -- 29.17 in987.8 mb - 0.00 in0.0 mm 0.00 in0.0 mm
07:00 PM 24.6°F-4.1°C 24.4°F-4.2°C 99% Calm Calm -- 29.17 in987.8 mb - 0.00 in0.0 mm 0.00 in0.0 mm
08:00 PM 24.8°F-4.0°C 24.6°F-4.1°C 99% Calm Calm -- 29.16 in987.5 mb - 0.00 in0.0 mm 0.00 in0.0 mm
09:00 PM 26.8°F-2.9°C 26.6°F-3.0°C 99% Calm Calm -- 29.14 in986.8 mb - 0.00 in0.0 mm 0.00 in0.0 mm
10:00 PM 28.4°F-2.0°C 27.9°F-2.3°C 98% Calm Calm -- 29.12 in986.1 mb - 0.00 in0.0 mm 0.00 in0.0 mm
11:00 PM 29.8°F-1.2°C 29.6°F-1.3°C 99% Calm Calm -- 29.09 in985.1 mb - 0.00 in0.0 mm 0.00 in0.0 mm